Time;durP1;ratioP1;P1;durP2;ratioP2;P2;SDS_P1;SDS_P2;PMS_P1;PMS_P2;Temp;Humidity;BMP_temperature;BMP_pressure;BME280_temperature;BME280_humidity;BME280_pressure;Samples;Min_cycle;Max_cycle;Signal;HPM_P1;HPM_P2
2023/10/11 00:00:44;;;;;;;6.80;3.63;;;;;;;18.14;75.20;100621.28;7393309;19;20348;-61
2023/10/11 00:03:32;;;;;;;10.23;3.90;;;;;;;18.11;75.59;100618.25;7391335;19;20363;-61
2023/10/11 00:06:04;;;;;;;8.00;3.75;;;;;;;18.09;75.21;100623.84;7389654;19;20912;-61
2023/10/11 00:08:39;;;;;;;7.72;3.63;;;;;;;18.07;75.29;100625.13;7386577;19;20876;-62
2023/10/11 00:11:07;;;;;;;9.52;3.60;;;;;;;18.03;75.10;100629.31;7388372;19;20878;-62
2023/10/11 00:13:36;;;;;;;8.35;3.78;;;;;;;18.02;75.11;100623.13;7394435;19;20417;-62
2023/10/11 00:16:09;;;;;;;5.78;3.05;;;;;;;18.02;75.46;100616.91;7390126;19;20480;-61
2023/10/11 00:18:38;;;;;;;9.07;3.90;;;;;;;18.00;74.92;100616.31;7390178;19;20368;-61
2023/10/11 00:21:10;;;;;;;9.30;3.80;;;;;;;17.99;74.76;100612.00;7389372;19;20873;-61
2023/10/11 00:23:42;;;;;;;6.72;3.70;;;;;;;17.96;75.09;100607.06;7393360;19;20360;-62
2023/10/11 00:26:10;;;;;;;9.32;3.55;;;;;;;17.96;75.01;100607.91;7391520;19;20863;-61
2023/10/11 00:28:43;;;;;;;8.60;3.88;;;;;;;17.94;74.99;100599.28;7388877;19;20398;-60
2023/10/11 00:31:19;;;;;;;7.82;3.67;;;;;;;17.92;74.82;100594.13;7391587;19;20336;-61
2023/10/11 00:33:47;;;;;;;7.68;4.15;;;;;;;17.95;74.84;100589.34;7391141;19;20905;-62
2023/10/11 00:36:16;;;;;;;6.72;3.53;;;;;;;17.92;74.75;100583.38;7390666;19;20364;-61
2023/10/11 00:38:46;;;;;;;6.45;3.65;;;;;;;17.92;74.53;100580.72;7392705;19;20364;-62
2023/10/11 00:41:17;;;;;;;8.88;3.67;;;;;;;17.90;74.65;100579.31;7389921;19;20444;-61
2023/10/11 00:43:55;;;;;;;7.05;3.53;;;;;;;17.86;74.54;100573.56;7391300;19;20498;-61
2023/10/11 00:46:27;;;;;;;9.35;3.92;;;;;;;17.86;74.02;100575.44;7389655;19;20357;-62
2023/10/11 00:49:03;;;;;;;9.85;3.95;;;;;;;17.84;73.96;100564.91;7389292;19;20485;-62
2023/10/11 00:51:31;;;;;;;8.27;4.13;;;;;;;17.87;73.97;100569.84;7387502;19;20354;-62
2023/10/11 00:54:03;;;;;;;6.63;3.70;;;;;;;17.89;74.08;100566.91;7389628;19;20634;-62
2023/10/11 00:56:32;;;;;;;7.68;3.70;;;;;;;17.86;73.43;100559.31;7390740;19;20372;-61
2023/10/11 00:59:13;;;;;;;11.10;3.97;;;;;;;17.83;73.17;100557.94;7391859;19;20379;-62
2023/10/11 01:01:44;;;;;;;7.65;3.97;;;;;;;17.90;73.42;100569.38;7389303;19;20380;-61
2023/10/11 01:04:14;;;;;;;7.68;3.63;;;;;;;17.92;73.39;100563.78;7390878;19;20482;-61
2023/10/11 01:06:41;;;;;;;7.40;3.35;;;;;;;17.92;73.06;100561.91;7389320;19;20472;-61
2023/10/11 01:09:17;;;;;;;9.00;3.78;;;;;;;17.91;72.68;100565.66;7390567;19;20379;-62
2023/10/11 01:11:46;;;;;;;8.30;3.90;;;;;;;17.92;72.82;100563.78;7387849;19;20890;-62
2023/10/11 01:14:13;;;;;;;10.83;3.47;;;;;;;17.92;72.75;100559.25;7391217;19;20370;-61
2023/10/11 01:16:41;;;;;;;7.28;3.45;;;;;;;17.94;72.42;100561.69;7389532;19;20451;-61
2023/10/11 01:19:15;;;;;;;8.55;3.60;;;;;;;17.93;72.52;100566.22;7389607;19;20934;-61
2023/10/11 01:21:47;;;;;;;7.38;3.20;;;;;;;17.95;72.42;100557.16;7391007;19;20337;-61
2023/10/11 01:24:17;;;;;;;7.93;3.33;;;;;;;17.93;71.94;100563.53;7385456;19;20927;-61
2023/10/11 01:26:44;;;;;;;6.85;3.35;;;;;;;17.92;71.81;100564.59;7390865;19;20372;-61
2023/10/11 01:29:11;;;;;;;7.07;3.45;;;;;;;17.93;71.92;100560.84;7396427;19;20356;-62
2023/10/11 01:31:38;;;;;;;5.70;3.08;;;;;;;17.96;71.88;100566.81;7389147;19;20424;-61
2023/10/11 01:34:05;;;;;;;9.00;3.63;;;;;;;17.95;71.77;100562.50;7392917;19;20417;-61
2023/10/11 01:36:34;;;;;;;7.13;3.53;;;;;;;17.95;71.78;100555.28;7396189;19;20892;-62
2023/10/11 01:39:07;;;;;;;8.35;3.60;;;;;;;17.93;71.83;100560.06;7394085;19;20365;-61
2023/10/11 01:41:40;;;;;;;7.22;3.70;;;;;;;17.90;71.32;100555.97;7394497;19;20381;-62
2023/10/11 01:44:07;;;;;;;11.20;3.60;;;;;;;17.90;70.79;100547.91;7394008;19;21134;-61
2023/10/11 01:46:40;;;;;;;8.00;3.33;;;;;;;17.92;71.18;100545.81;7396503;19;20344;-61
2023/10/11 01:49:09;;;;;;;6.22;3.53;;;;;;;17.93;70.56;100531.34;7395094;19;20380;-61
2023/10/11 01:51:39;;;;;;;6.90;3.42;;;;;;;17.99;70.49;100531.50;7396565;19;20341;-62
2023/10/11 01:54:08;;;;;;;7.00;3.40;;;;;;;18.00;69.25;100533.97;7395535;19;20380;-61
2023/10/11 01:56:35;;;;;;;5.47;2.95;;;;;;;18.10;69.43;100533.38;7395639;19;20867;-62
2023/10/11 01:59:04;;;;;;;8.65;3.95;;;;;;;18.16;69.33;100531.66;7392760;19;20380;-61
2023/10/11 02:01:38;;;;;;;7.07;3.35;;;;;;;18.20;69.11;100528.28;7391917;19;20855;-61
2023/10/11 02:04:17;;;;;;;10.77;3.90;;;;;;;18.23;68.88;100532.38;7395505;19;20378;-61
2023/10/11 02:06:49;;;;;;;8.88;3.40;;;;;;;18.28;68.28;100529.84;7393341;19;20376;-61
2023/10/11 02:09:21;;;;;;;6.10;3.25;;;;;;;18.36;67.93;100520.63;7395964;19;20360;-62
2023/10/11 02:11:52;;;;;;;7.20;3.20;;;;;;;18.39;67.31;100520.97;7395180;19;20620;-62
2023/10/11 02:14:22;;;;;;;6.15;3.20;;;;;;;18.47;67.63;100527.91;7395726;19;20751;-62
2023/10/11 02:16:49;;;;;;;11.05;3.95;;;;;;;18.49;67.35;100531.97;7392778;19;21103;-62
2023/10/11 02:19:18;;;;;;;10.90;3.70;;;;;;;18.50;67.11;100538.16;7393337;19;20340;-62
2023/10/11 02:21:45;;;;;;;11.73;3.15;;;;;;;18.53;67.19;100535.00;7395520;19;20717;-61
2023/10/11 02:24:15;;;;;;;7.45;2.90;;;;;;;18.54;67.04;100536.66;7397153;19;20428;-61
2023/10/11 02:26:49;;;;;;;8.20;3.03;;;;;;;18.54;67.12;100536.66;7397198;19;20368;-61
2023/10/11 02:29:24;;;;;;;12.73;3.35;;;;;;;18.54;66.85;100533.97;7389973;19;20340;-61
2023/10/11 02:31:52;;;;;;;7.03;3.07;;;;;;;18.54;66.63;100531.28;7392742;19;20477;-61
2023/10/11 02:34:21;;;;;;;7.50;3.80;;;;;;;18.53;66.85;100538.53;7394768;19;20860;-60
2023/10/11 02:37:03;;;;;;;7.03;2.97;;;;;;;18.52;66.95;100530.69;7395313;19;20348;-61
2023/10/11 02:39:32;;;;;;;9.57;3.00;;;;;;;18.51;66.67;100529.06;7394332;19;20367;-61
2023/10/11 02:42:01;;;;;;;7.75;3.03;;;;;;;18.50;65.94;100527.41;7395324;19;20369;-61
2023/10/11 02:44:29;;;;;;;7.05;3.22;;;;;;;18.54;66.19;100523.22;7395506;19;20364;-61
2023/10/11 02:46:58;;;;;;;8.43;3.43;;;;;;;18.56;65.73;100526.50;7393545;19;20674;-61
2023/10/11 02:49:31;;;;;;;7.75;2.75;;;;;;;18.59;66.18;100526.00;7393532;19;20341;-61
2023/10/11 02:52:08;;;;;;;7.53;3.10;;;;;;;18.61;65.54;100525.78;7395218;19;20430;-60
2023/10/11 02:54:39;;;;;;;6.93;3.00;;;;;;;18.64;65.41;100523.47;7391378;19;20726;-62
2023/10/11 02:57:20;;;;;;;7.10;3.45;;;;;;;18.66;65.39;100525.94;7390329;19;20380;-62
2023/10/11 02:59:50;;;;;;;7.07;3.00;;;;;;;18.70;65.59;100527.91;7394245;19;20450;-62
2023/10/11 03:02:20;;;;;;;10.15;3.70;;;;;;;18.68;65.32;100527.31;7392912;19;20380;-62
2023/10/11 03:04:49;;;;;;;10.13;3.72;;;;;;;18.69;65.28;100525.44;7394748;19;20754;-62
2023/10/11 03:07:21;;;;;;;7.28;3.03;;;;;;;18.69;65.23;100520.88;7393607;19;20477;-62
2023/10/11 03:09:50;;;;;;;7.97;2.80;;;;;;;18.67;65.11;100519.50;7394502;19;20364;-62
2023/10/11 03:12:30;;;;;;;7.53;2.97;;;;;;;18.69;64.83;100520.88;7394366;19;20367;-62
2023/10/11 03:15:06;;;;;;;7.63;3.20;;;;;;;18.70;64.84;100517.16;7391606;19;20352;-61
2023/10/11 03:17:40;;;;;;;7.78;3.30;;;;;;;18.71;64.80;100517.97;7392195;19;20355;-61
2023/10/11 03:22:59;;;;;;;7.22;3.38;;;;;;;18.74;64.97;100507.59;7394934;19;20368;-62
2023/10/11 03:25:37;;;;;;;7.45;2.88;;;;;;;18.72;64.31;100504.31;7393350;19;20376;-62
2023/10/11 03:28:05;;;;;;;6.05;2.80;;;;;;;18.73;64.50;100505.94;7391732;19;20365;-61
2023/10/11 03:30:35;;;;;;;6.43;2.92;;;;;;;18.73;64.42;100495.19;7393181;19;20690;-62
2023/10/11 03:33:02;;;;;;;6.78;3.20;;;;;;;18.74;64.14;100493.31;7393265;19;20931;-61
2023/10/11 03:35:34;;;;;;;5.10;2.50;;;;;;;18.75;64.53;100492.28;7392055;19;20900;-61
2023/10/11 03:38:00;;;;;;;6.47;2.97;;;;;;;18.74;64.45;100488.78;7393067;19;20367;-62
2023/10/11 03:43:16;;;;;;;7.35;3.53;;;;;;;18.71;64.88;100486.53;7386203;19;20903;-61
2023/10/11 03:45:50;;;;;;;7.30;3.45;;;;;;;18.72;64.94;100476.59;7391267;19;20694;-62
2023/10/11 03:48:20;;;;;;;8.63;2.77;;;;;;;18.69;64.96;100472.53;7391552;19;20493;-62
2023/10/11 03:50:51;;;;;;;9.03;3.40;;;;;;;18.71;64.89;100470.44;7383279;19;20380;-62
2023/10/11 03:53:18;;;;;;;6.00;3.15;;;;;;;18.73;64.87;100473.69;7385088;19;20411;-60
2023/10/11 03:55:49;;;;;;;7.18;2.90;;;;;;;18.74;64.81;100490.63;7386301;19;20360;-61
2023/10/11 03:58:32;;;;;;;7.07;3.30;;;;;;;18.77;64.79;100473.25;7385842;19;20385;-61
2023/10/11 04:01:12;;;;;;;9.00;3.50;;;;;;;18.75;65.01;100481.53;7384048;19;20945;-61
2023/10/11 04:03:40;;;;;;;7.57;3.63;;;;;;;18.79;64.85;100468.47;7385350;19;20348;-61
2023/10/11 04:06:14;;;;;;;8.32;3.30;;;;;;;18.81;64.58;100469.06;7384156;19;20895;-62
2023/10/11 04:08:48;;;;;;;7.88;3.53;;;;;;;18.83;64.90;100466.94;7384357;19;20357;-62
2023/10/11 04:11:19;;;;;;;6.80;3.10;;;;;;;18.83;64.36;100472.31;7384940;19;20371;-61
2023/10/11 04:13:47;;;;;;;8.30;3.63;;;;;;;18.86;64.84;100461.09;7386090;19;20357;-61
2023/10/11 04:16:17;;;;;;;8.27;3.50;;;;;;;18.90;64.62;100467.66;7384547;19;20356;-61
2023/10/11 04:18:44;;;;;;;8.32;3.60;;;;;;;18.91;64.66;100458.50;7382301;19;20894;-61
2023/10/11 04:23:41;;;;;;;8.90;3.43;;;;;;;18.91;64.49;100458.50;7386388;19;20467;-61
2023/10/11 04:26:21;;;;;;;7.22;3.10;;;;;;;18.93;64.30;100461.78;7383347;19;20376;-62
2023/10/11 04:28:51;;;;;;;7.50;3.50;;;;;;;18.93;64.65;100454.56;7385287;19;20375;-62
2023/10/11 04:31:54;;;;;;;8.70;3.20;;;;;;;18.95;64.51;100457.00;7384950;19;20396;-62
2023/10/11 04:34:14;;;;;;;9.05;3.20;;;;;;;18.95;64.59;100459.69;7386829;19;20440;-62
2023/10/11 04:36:42;;;;;;;7.63;3.00;;;;;;;18.99;64.62;100455.47;7381396;19;20423;-62
2023/10/11 04:39:16;;;;;;;10.07;3.50;;;;;;;18.99;64.48;100460.03;7383334;19;20423;-62
2023/10/11 04:41:50;;;;;;;8.93;3.03;;;;;;;18.97;64.70;100457.56;7385844;19;20360;-62
2023/10/11 04:44:17;;;;;;;8.65;3.25;;;;;;;18.99;64.37;100446.59;7384870;19;20967;-62
2023/10/11 04:46:55;;;;;;;10.00;3.53;;;;;;;19.01;65.01;100442.59;7384349;19;20355;-62
2023/10/11 04:49:24;;;;;;;9.10;3.03;;;;;;;19.00;64.65;100453.59;7386158;19;20364;-62
2023/10/11 04:51:56;;;;;;;9.80;2.92;;;;;;;19.02;64.44;100448.78;7384098;19;20365;-62
2023/10/11 04:54:36;;;;;;;7.47;3.13;;;;;;;19.02;64.48;100446.94;7383345;19;20360;-62
2023/10/11 04:57:35;;;;;;;9.18;3.35;;;;;;;19.05;64.31;100443.78;7385701;19;20356;-62
2023/10/11 04:59:54;;;;;;;11.30;3.58;;;;;;;19.08;64.77;100445.16;7386050;19;20344;-62
2023/10/11 05:02:32;;;;;;;6.13;2.80;;;;;;;19.08;64.24;100448.69;7388717;19;20710;-62
2023/10/11 05:05:00;;;;;;;10.05;3.30;;;;;;;19.10;64.52;100429.59;7393048;19;20360;-62
2023/10/11 05:07:28;;;;;;;8.02;3.28;;;;;;;19.11;64.55;100452.78;7391818;19;20360;-62
2023/10/11 05:12:57;;;;;;;9.13;3.40;;;;;;;19.14;64.59;100439.66;7392775;19;20408;-62
2023/10/11 05:15:32;;;;;;;8.13;3.63;;;;;;;19.10;64.69;100435.78;7394607;19;20336;-63
2023/10/11 05:17:59;;;;;;;10.68;3.55;;;;;;;19.11;66.27;100445.50;7394077;19;20376;-59
2023/10/11 05:23:05;;;;;;;10.30;3.42;;;;;;;19.20;64.43;100439.78;7394575;19;20360;-59
2023/10/11 05:28:27;;;;;;;9.90;3.35;;;;;;;19.18;64.33;100431.13;7391131;19;20386;-58
2023/10/11 05:31:06;;;;;;;9.00;3.25;;;;;;;19.24;63.93;100430.16;7393459;19;20423;-59
2023/10/11 05:33:57;;;;;;;6.85;3.10;;;;;;;19.25;64.05;100437.16;7393843;19;20360;-60
2023/10/11 05:36:40;;;;;;;11.18;3.50;;;;;;;19.28;63.87;100445.59;7390869;19;20962;-60
2023/10/11 05:52:55;;;;;;;8.98;4.85;;;;;;;19.38;62.59;100431.53;7400574;19;20360;-60
2023/10/11 05:55:23;;;;;;;10.45;5.28;;;;;;;19.36;62.59;100436.34;7399306;19;20879;-60
2023/10/11 05:57:50;;;;;;;19.63;13.95;;;;;;;19.39;63.18;100414.31;7399678;19;20361;-60
2023/10/11 06:00:25;;;;;;;11.77;6.15;;;;;;;19.36;62.71;100433.66;7398603;19;20377;-60
2023/10/11 06:02:52;;;;;;;12.83;5.33;;;;;;;19.36;62.54;100425.56;7399276;19;20868;-57
2023/10/11 06:05:23;;;;;;;12.10;4.25;;;;;;;19.34;62.64;100427.69;7398064;19;20368;-60
2023/10/11 06:08:00;;;;;;;12.07;3.97;;;;;;;19.31;62.33;100428.16;7398076;19;20847;-60
2023/10/11 06:10:32;;;;;;;22.17;14.10;;;;;;;19.32;62.63;100419.03;7397270;19;20389;-60
2023/10/11 06:12:59;;;;;;;13.45;6.70;;;;;;;19.31;62.14;100420.06;7397287;19;20412;-60
2023/10/11 06:15:29;;;;;;;22.20;9.87;;;;;;;19.33;62.28;100423.34;7398988;19;20379;-60
2023/10/11 06:17:56;;;;;;;23.70;14.57;;;;;;;19.32;61.78;100427.09;7399106;19;20397;-60
2023/10/11 06:20:26;;;;;;;58.35;38.10;;;;;;;19.32;61.98;100429.78;7396069;19;20372;-60
2023/10/11 06:22:54;;;;;;;7.55;3.65;;;;;;;19.35;61.79;100430.13;7397323;19;20714;-60
2023/10/11 06:26:28;;;;;;;18.30;8.75;;;;;;;19.36;61.40;100430.97;7397237;19;20368;-59
2023/10/11 06:28:14;;;;;;;10.48;4.53;;;;;;;19.39;61.90;100433.16;7396994;19;20349;-60
2023/10/11 06:30:47;;;;;;;26.27;16.20;;;;;;;19.38;61.61;100444.16;7398025;19;20860;-60
2023/10/11 06:33:14;;;;;;;14.68;7.88;;;;;;;19.37;61.93;100429.06;7399012;19;20373;-60
2023/10/11 06:35:46;;;;;;;11.40;5.03;;;;;;;19.33;61.28;100429.53;7398352;19;20395;-60
2023/10/11 06:38:13;;;;;;;18.83;12.17;;;;;;;19.37;61.52;100429.88;7398459;19;20360;-60
2023/10/11 06:40:47;;;;;;;9.50;4.10;;;;;;;19.38;61.42;100423.47;7394139;19;20369;-61
2023/10/11 06:43:14;;;;;;;13.77;5.65;;;;;;;19.41;61.86;100441.81;7398118;19;20872;-59
2023/10/11 06:45:41;;;;;;;12.00;6.68;;;;;;;19.42;60.91;100429.16;7397308;19;20389;-61
2023/10/11 06:48:13;;;;;;;10.18;5.18;;;;;;;19.43;61.30;100439.69;7396427;19;20408;-60
2023/10/11 06:50:40;;;;;;;15.13;7.00;;;;;;;19.49;61.31;100430.66;7396042;19;20352;-60
2023/10/11 06:53:09;;;;;;;9.20;4.40;;;;;;;19.51;61.05;100435.81;7397087;19;20369;-58
2023/10/11 06:55:39;;;;;;;10.20;5.13;;;;;;;19.49;61.21;100438.72;7398508;19;20427;-60
2023/10/11 06:58:15;;;;;;;8.50;3.00;;;;;;;19.54;60.96;100441.50;7395774;19;20360;-59
2023/10/11 07:00:45;;;;;;;8.20;3.20;;;;;;;19.54;60.03;100440.69;7393350;19;20398;-60
2023/10/11 07:05:49;;;;;;;21.80;9.18;;;;;;;19.62;60.22;100444.88;7398486;19;20325;-59
2023/10/11 07:08:18;;;;;;;8.45;3.00;;;;;;;19.66;59.81;100429.91;7388850;19;20365;-60
2023/10/11 07:11:00;;;;;;;7.93;3.53;;;;;;;19.68;60.24;100441.22;7385236;19;20381;-60
2023/10/11 07:13:43;;;;;;;15.73;8.57;;;;;;;19.71;59.98;100440.78;7393656;19;20368;-60
2023/10/11 07:16:10;;;;;;;17.88;7.43;;;;;;;19.67;59.84;100436.91;7395023;19;20365;-60
2023/10/11 07:18:43;;;;;;;8.93;3.40;;;;;;;19.69;60.58;100432.09;7392606;19;20889;-60
2023/10/11 07:21:10;;;;;;;8.48;3.20;;;;;;;19.67;60.09;100429.63;7394933;19;20368;-60
2023/10/11 07:23:55;;;;;;;10.23;3.72;;;;;;;19.72;60.05;100427.06;7395036;19;20432;-60
2023/10/11 07:28:59;;;;;;;7.93;2.78;;;;;;;19.73;60.02;100444.03;7397155;19;20372;-60
2023/10/11 07:31:32;;;;;;;7.53;3.13;;;;;;;19.75;60.45;100445.41;7395462;19;20357;-60
2023/10/11 07:34:05;;;;;;;5.95;2.78;;;;;;;19.78;60.80;100446.81;7391712;19;20736;-60
2023/10/11 07:36:33;;;;;;;7.55;3.67;;;;;;;19.81;60.88;100464.38;7390079;19;20341;-60
2023/10/11 07:39:14;;;;;;;10.27;4.10;;;;;;;19.82;60.68;100466.00;7393103;19;20376;-60
2023/10/11 07:41:42;;;;;;;39.60;26.45;;;;;;;19.85;61.08;100469.03;7393406;19;21149;-60
2023/10/11 07:44:10;;;;;;;10.68;3.13;;;;;;;19.91;60.56;100462.69;7394353;19;20896;-59
2023/10/11 07:46:38;;;;;;;7.33;2.80;;;;;;;19.91;59.51;100472.59;7395392;19;20356;-60
2023/10/11 07:49:09;;;;;;;24.75;13.23;;;;;;;19.96;60.16;100462.75;7394130;19;20376;-60
2023/10/11 07:51:39;;;;;;;47.63;25.45;;;;;;;20.06;60.17;100442.44;7393263;19;20372;-59
2023/10/11 07:54:07;;;;;;;27.08;17.05;;;;;;;20.08;59.73;100448.38;7390798;19;20728;-59
2023/10/11 07:56:37;;;;;;;18.63;11.38;;;;;;;20.16;59.06;100458.75;7395064;19;20384;-60
2023/10/11 07:59:08;;;;;;;27.83;17.77;;;;;;;20.28;59.36;100451.44;7393393;19;20353;-61
2023/10/11 08:01:45;;;;;;;28.70;18.55;;;;;;;20.37;58.94;100449.13;7395415;19;21198;-60
2023/10/11 08:04:17;;;;;;;9.30;4.93;;;;;;;20.49;58.15;100435.59;7394336;19;20345;-60
2023/10/11 08:06:45;;;;;;;12.07;5.63;;;;;;;20.59;56.96;100449.22;7394658;19;20421;-60
2023/10/11 08:09:21;;;;;;;20.33;12.25;;;;;;;20.70;57.80;100459.09;7392502;19;20380;-60
2023/10/11 08:11:59;;;;;;;11.75;5.47;;;;;;;20.83;57.14;100451.72;7390133;19;20368;-60
2023/10/11 08:14:29;;;;;;;15.35;7.85;;;;;;;20.83;55.93;100457.13;7393865;19;21386;-60
2023/10/11 08:16:56;;;;;;;23.02;14.50;;;;;;;20.95;55.71;100445.16;7393188;19;20353;-60
2023/10/11 08:19:23;;;;;;;18.25;10.27;;;;;;;20.98;56.07;100439.25;7395278;19;20347;-59
2023/10/11 08:21:57;;;;;;;16.90;8.07;;;;;;;21.09;56.56;100444.78;7393657;19;20376;-59
2023/10/11 08:24:28;;;;;;;24.30;15.93;;;;;;;21.17;55.58;100433.53;7391550;19;20906;-61
2023/10/11 08:27:06;;;;;;;29.93;19.90;;;;;;;21.17;55.25;100431.66;7391277;19;20379;-60
2023/10/11 08:29:35;;;;;;;12.98;6.57;;;;;;;21.23;55.26;100423.63;7392839;19;20393;-60
2023/10/11 08:32:15;;;;;;;23.95;14.30;;;;;;;21.23;53.93;100434.41;7391975;19;20364;-61
2023/10/11 08:34:46;;;;;;;24.77;15.87;;;;;;;21.29;53.66;100430.69;7395609;19;20994;-60
2023/10/11 08:37:14;;;;;;;9.45;3.60;;;;;;;21.44;54.60;100435.47;7392781;19;20679;-60
2023/10/11 08:39:44;;;;;;;11.15;3.60;;;;;;;21.53;53.99;100448.28;7393027;19;20428;-60
2023/10/11 08:42:12;;;;;;;7.85;3.20;;;;;;;21.60;53.42;100428.38;7388953;19;20372;-60
2023/10/11 08:44:45;;;;;;;7.85;3.25;;;;;;;21.71;54.35;100435.50;7393212;19;20372;-61
2023/10/11 08:47:13;;;;;;;9.63;2.97;;;;;;;21.77;53.64;100419.09;7389264;19;20374;-60
2023/10/11 08:49:59;;;;;;;8.05;2.95;;;;;;;21.85;53.89;100428.63;7392705;19;20364;-59
2023/10/11 08:52:29;;;;;;;8.52;3.03;;;;;;;21.86;51.83;100427.53;7390899;19;21117;-57
2023/10/11 08:54:58;;;;;;;6.50;2.90;;;;;;;21.88;52.63;100430.78;7393753;19;20371;-60
2023/10/11 08:57:26;;;;;;;9.50;3.05;;;;;;;21.92;52.38;100445.41;7391279;19;20377;-59
2023/10/11 08:59:59;;;;;;;8.40;3.70;;;;;;;21.85;52.45;100442.13;7393032;19;20373;-60
2023/10/11 09:02:27;;;;;;;5.82;2.92;;;;;;;21.96;52.82;100438.44;7389842;19;20371;-60
2023/10/11 09:05:06;;;;;;;6.90;3.00;;;;;;;21.97;52.27;100456.28;7393278;19;20368;-60
2023/10/11 09:07:39;;;;;;;5.93;2.35;;;;;;;22.01;51.90;100477.34;7392296;19;20374;-59
2023/10/11 09:10:26;;;;;;;10.50;4.55;;;;;;;22.09;52.49;100458.00;7391070;19;20376;-58
2023/10/11 09:12:57;;;;;;;10.15;5.07;;;;;;;22.11;51.91;100445.84;7391390;19;20367;-60
2023/10/11 09:15:44;;;;;;;5.85;2.70;;;;;;;22.20;52.58;100435.38;7393062;19;20963;-59
2023/10/11 09:18:16;;;;;;;6.30;2.97;;;;;;;22.23;52.66;100448.41;7390741;19;20428;-60
2023/10/11 09:20:55;;;;;;;13.80;8.55;;;;;;;22.11;51.18;100439.63;7392883;19;20705;-60
2023/10/11 09:23:46;;;;;;;6.75;2.92;;;;;;;22.16;51.34;100447.75;7389772;19;20910;-61
2023/10/11 09:26:21;;;;;;;7.57;3.70;;;;;;;22.09;51.25;100447.19;7389203;19;20374;-60
2023/10/11 09:28:56;;;;;;;13.77;6.43;;;;;;;22.04;51.20;100433.63;7391455;19;20348;-60
2023/10/11 09:31:24;;;;;;;17.75;8.57;;;;;;;22.06;51.55;100426.91;7391485;19;20361;-60
2023/10/11 09:33:51;;;;;;;5.97;2.60;;;;;;;21.97;51.61;100439.25;7390720;19;20357;-61
2023/10/11 09:36:20;;;;;;;9.93;4.70;;;;;;;21.94;52.34;100445.97;7390157;19;20382;-59
2023/10/11 09:38:54;;;;;;;10.45;3.50;;;;;;;21.87;52.47;100450.78;7390572;19;20424;-61
2023/10/11 09:41:38;;;;;;;6.38;2.53;;;;;;;21.84;53.23;100443.16;7392025;19;20397;-61
2023/10/11 09:44:07;;;;;;;7.68;2.88;;;;;;;21.85;52.98;100444.00;7390705;19;20448;-58
2023/10/11 09:46:34;;;;;;;7.88;4.03;;;;;;;21.85;53.68;100428.63;7389760;19;20352;-61
2023/10/11 09:49:03;;;;;;;7.93;2.90;;;;;;;21.82;53.81;100431.81;7394856;19;20357;-60
2023/10/11 09:51:31;;;;;;;8.32;2.90;;;;;;;21.76;53.84;100425.56;7397595;19;20376;-60
2023/10/11 09:54:05;;;;;;;6.90;2.72;;;;;;;21.69;53.63;100427.63;7396808;19;20352;-60
2023/10/11 09:56:54;;;;;;;5.70;2.65;;;;;;;21.68;53.84;100419.81;7396624;19;20728;-61
2023/10/11 09:59:24;;;;;;;5.73;2.77;;;;;;;21.66;54.41;100430.88;7395861;19;20434;-61
2023/10/11 10:02:02;;;;;;;5.88;3.10;;;;;;;21.62;53.67;100426.25;7396217;19;20376;-60
2023/10/11 10:04:51;;;;;;;6.18;2.90;;;;;;;21.70;54.31;100444.69;7396887;19;20365;-60
2023/10/11 10:07:24;;;;;;;7.57;3.33;;;;;;;21.72;54.49;100442.53;7397163;19;20824;-61
2023/10/11 10:09:53;;;;;;;8.82;3.67;;;;;;;21.87;53.80;100439.97;7397094;19;20361;-61
2023/10/11 10:12:25;;;;;;;7.85;3.10;;;;;;;22.01;55.00;100426.03;7397562;19;20353;-60
2023/10/11 10:15:23;;;;;;;6.75;2.70;;;;;;;22.19;54.07;100433.75;7397239;19;20356;-60
2023/10/11 10:18:14;;;;;;;6.10;2.60;;;;;;;22.34;53.08;100452.81;7397851;19;20348;-60
2023/10/11 10:20:42;;;;;;;5.63;2.83;;;;;;;22.47;52.53;100426.41;7384948;19;20339;-61
2023/10/11 10:23:15;;;;;;;13.65;5.15;;;;;;;22.53;52.39;100414.56;7387650;19;20378;-58
2023/10/11 10:25:46;;;;;;;8.33;3.17;;;;;;;22.75;52.81;100430.63;7390547;19;20441;-60
2023/10/11 10:28:42;;;;;;;6.25;2.90;;;;;;;22.86;52.46;100428.78;7396635;19;20345;-60
2023/10/11 10:31:11;;;;;;;7.00;2.50;;;;;;;22.97;52.57;100419.63;7395743;19;20376;-60
2023/10/11 10:33:39;;;;;;;7.18;2.88;;;;;;;23.08;52.14;100421.34;7398102;19;20360;-61
2023/10/11 10:36:21;;;;;;;8.13;3.25;;;;;;;23.24;51.93;100424.91;7394728;19;20352;-60
2023/10/11 10:39:24;;;;;;;8.38;2.72;;;;;;;23.40;52.03;100423.06;7395551;19;20428;-60
2023/10/11 10:42:12;;;;;;;7.35;3.20;;;;;;;23.42;51.02;100431.75;7398919;19;20664;-61
2023/10/11 10:44:59;;;;;;;5.95;2.33;;;;;;;23.48;50.53;100413.59;7395688;19;20875;-60
2023/10/11 10:47:31;;;;;;;8.70;4.35;;;;;;;23.58;50.33;100409.00;7396422;19;20416;-60
2023/10/11 10:50:06;;;;;;;6.50;2.50;;;;;;;23.61;50.04;100423.94;7396774;19;20381;-60
2023/10/11 10:52:34;;;;;;;10.23;3.03;;;;;;;23.72;50.11;100412.03;7395192;19;20695;-61
2023/10/11 10:55:05;;;;;;;8.10;2.70;;;;;;;23.79;50.07;100420.72;7395389;19;20364;-61
2023/10/11 10:57:36;;;;;;;7.00;2.63;;;;;;;23.83;49.27;100420.19;7394042;19;20403;-60
2023/10/11 11:00:21;;;;;;;8.50;2.87;;;;;;;23.96;49.50;100430.47;7396470;19;20842;-60
2023/10/11 11:02:49;;;;;;;9.25;3.00;;;;;;;24.13;49.81;100427.50;7397703;19;20357;-60
2023/10/11 11:05:25;;;;;;;5.97;2.80;;;;;;;24.24;48.34;100412.84;7392754;19;20358;-61
2023/10/11 11:08:15;;;;;;;7.28;3.22;;;;;;;24.35;48.13;100406.31;7392762;19;20368;-59
2023/10/11 11:10:54;;;;;;;17.23;9.93;;;;;;;24.55;47.88;100405.50;7395537;19;20372;-61
2023/10/11 11:13:22;;;;;;;10.73;5.20;;;;;;;24.65;47.58;100401.94;7392955;19;20356;-60
2023/10/11 11:15:55;;;;;;;10.98;5.93;;;;;;;24.73;47.10;100406.78;7391954;19;20368;-60
2023/10/11 11:18:31;;;;;;;26.63;16.92;;;;;;;24.71;47.15;100398.13;7393328;19;20903;-61
2023/10/11 11:21:17;;;;;;;25.48;14.60;;;;;;;24.74;47.75;100396.78;7394846;19;20356;-60
2023/10/11 11:23:45;;;;;;;10.75;4.30;;;;;;;24.82;47.27;100405.16;7396257;19;20417;-61
2023/10/11 11:26:16;;;;;;;9.87;3.80;;;;;;;24.89;46.83;100407.56;7397134;19;20344;-60
2023/10/11 11:29:09;;;;;;;9.10;2.90;;;;;;;25.08;47.09;100407.75;7394644;19;20463;-60
2023/10/11 11:31:53;;;;;;;8.07;2.90;;;;;;;25.25;47.67;100406.59;7390547;19;20383;-60
2023/10/11 11:34:37;;;;;;;9.77;2.90;;;;;;;25.25;47.19;100401.16;7391093;19;20365;-60
2023/10/11 11:37:06;;;;;;;8.38;3.20;;;;;;;25.28;47.35;100400.63;7393505;19;20356;-61
2023/10/11 11:39:50;;;;;;;10.40;3.08;;;;;;;25.22;46.89;100400.63;7389653;19;20388;-61
2023/10/11 11:42:20;;;;;;;10.93;3.00;;;;;;;25.29;46.85;100413.09;7388909;19;20365;-61
2023/10/11 11:44:48;;;;;;;12.05;3.63;;;;;;;25.31;47.30;100403.59;7390906;19;20412;-60
2023/10/11 11:47:21;;;;;;;10.57;3.50;;;;;;;25.33;46.86;100401.41;7384898;19;20916;-60
2023/10/11 11:49:51;;;;;;;10.15;2.92;;;;;;;25.39;47.00;100410.31;7387898;19;20372;-59
2023/10/11 11:52:18;;;;;;;7.80;2.35;;;;;;;25.44;47.66;100421.16;7389982;19;20356;-60
2023/10/11 11:54:47;;;;;;;8.35;2.70;;;;;;;25.36;47.02;100428.00;7392514;19;20904;-61
2023/10/11 11:57:14;;;;;;;8.45;2.78;;;;;;;25.47;47.15;100415.16;7393574;19;20357;-60
2023/10/11 11:59:43;;;;;;;7.45;2.50;;;;;;;25.47;46.68;100415.16;7394278;19;20360;-61
2023/10/11 12:02:16;;;;;;;9.67;2.80;;;;;;;25.60;47.33;100419.16;7389537;19;20368;-60
2023/10/11 12:04:44;;;;;;;11.55;2.95;;;;;;;25.81;46.28;100398.09;7391346;19;20354;-60
2023/10/11 12:07:11;;;;;;;11.77;3.13;;;;;;;26.06;47.20;100415.31;7394700;19;20467;-60
2023/10/11 12:09:38;;;;;;;8.32;2.55;;;;;;;25.95;46.15;100396.38;7385427;19;20382;-60
2023/10/11 12:12:25;;;;;;;7.22;2.72;;;;;;;25.90;46.48;100418.13;7378643;19;20347;-62
2023/10/11 12:14:53;;;;;;;11.38;3.17;;;;;;;25.99;46.10;100389.28;7388839;19;20352;-63
2023/10/11 12:17:20;;;;;;;8.13;3.03;;;;;;;26.06;46.20;100415.31;7390030;19;20352;-62
2023/10/11 12:19:53;;;;;;;7.50;2.67;;;;;;;25.98;45.42;100458.31;7389466;19;20376;-62
2023/10/11 12:22:23;;;;;;;7.47;2.47;;;;;;;25.91;46.23;100427.13;7391363;19;20360;-63